Time,TemperatureF,DewpointF,PressureIn,WindDirection,WindDirectionDegrees,WindSpeedMPH,WindSpeedGustMPH,Humidity,HourlyPrecipIn,Conditions,Clouds,dailyrainin,SoftwareType,DateUTC
2013-07-09 00:00:00,78.1,73.2,29.80,SE,143,3.0,4.0,85,0.00,,,0.00,Wunderground v.1.15,2013-07-09 05:00:00,
2013-07-09 00:10:00,77.8,72.9,29.81,SSE,152,3.0,3.0,85,0.00,,,0.00,Wunderground v.1.15,2013-07-09 05:10:00,
2013-07-09 00:15:00,77.6,72.7,29.81,SE,137,2.0,3.0,85,0.00,,,0.00,Wunderground v.1.15,2013-07-09 05:15:00,
2013-07-09 00:25:00,77.2,72.3,29.81,SSE,158,2.0,2.0,85,0.00,,,0.00,Wunderground v.1.15,2013-07-09 05:25:00,
2013-07-09 00:35:00,76.6,72.1,29.82,SE,134,2.0,2.0,86,0.00,,,0.00,Wunderground v.1.15,2013-07-09 05:35:00,
2013-07-09 00:45:00,76.4,71.9,29.82,SE,139,1.0,2.0,86,0.00,,,0.00,Wunderground v.1.15,2013-07-09 05:45:00,
2013-07-09 00:55:00,76.2,71.7,29.81,SE,131,2.0,2.0,86,0.00,,,0.00,Wunderground v.1.15,2013-07-09 05:55:00,
2013-07-09 01:00:00,76.3,71.8,29.81,SE,132,2.0,2.0,86,0.00,,,0.00,Wunderground v.1.15,2013-07-09 06:00:00,
2013-07-09 01:10:00,76.1,71.6,29.81,SSE,148,3.0,3.0,86,0.00,,,0.00,Wunderground v.1.15,2013-07-09 06:10:00,
2013-07-09 01:15:00,76.1,71.6,29.81,SE,136,3.0,3.0,86,0.00,,,0.00,Wunderground v.1.15,2013-07-09 06:15:00,
2013-07-09 01:25:00,76.2,71.4,29.81,SSE,154,2.0,3.0,85,0.00,,,0.00,Wunderground v.1.15,2013-07-09 06:25:00,
2013-07-09 01:35:00,76.6,71.4,29.81,SE,127,2.0,3.0,84,0.00,,,0.00,Wunderground v.1.15,2013-07-09 06:35:00,
2013-07-09 01:45:00,77.1,71.5,29.82,ESE,122,2.0,2.0,83,0.00,,,0.00,Wunderground v.1.15,2013-07-09 06:45:00,
2013-07-09 01:50:00,77.3,71.0,29.82,SSE,148,2.0,2.0,81,0.00,,,0.00,Wunderground v.1.15,2013-07-09 06:50:00,
2013-07-09 02:01:00,77.9,71.2,29.81,ENE,70,2.0,2.0,80,0.00,,,0.00,Wunderground v.1.15,2013-07-09 07:01:00,
2013-07-09 02:10:00,77.3,71.4,29.82,ENE,73,2.0,3.0,82,0.00,,,0.00,Wunderground v.1.15,2013-07-09 07:10:00,
2013-07-09 02:20:00,77.4,71.1,29.82,East,91,2.0,2.0,81,0.00,,,0.00,Wunderground v.1.15,2013-07-09 07:20:00,
2013-07-09 02:30:00,77.6,71.3,29.82,ENE,75,1.0,2.0,81,0.00,,,0.00,Wunderground v.1.15,2013-07-09 07:30:00,
2013-07-09 02:40:00,77.3,71.4,29.82,NNW,339,1.0,1.0,82,0.00,,,0.00,Wunderground v.1.15,2013-07-09 07:40:00,
2013-07-09 02:55:00,76.5,71.3,29.82,NNW,339,0.0,0.0,84,0.00,,,0.00,Wunderground v.1.15,2013-07-09 07:55:00,
2013-07-09 03:00:00,76.3,71.1,29.82,NNW,339,0.0,2.0,84,0.00,,,0.00,Wunderground v.1.15,2013-07-09 08:00:00,
2013-07-09 03:10:00,75.9,71.1,29.82,NNE,26,2.0,3.0,85,0.00,,,0.00,Wunderground v.1.15,2013-07-09 08:10:00,
2013-07-09 03:15:00,76.0,71.2,29.82,ESE,114,2.0,3.0,85,0.00,,,0.00,Wunderground v.1.15,2013-07-09 08:15:00,
2013-07-09 03:25:00,75.3,71.2,29.82,NE,49,4.0,4.0,87,0.00,,,0.00,Wunderground v.1.15,2013-07-09 08:25:00,
2013-07-09 03:35:00,75.2,71.1,29.82,NE,37,3.0,3.0,87,0.00,,,0.00,Wunderground v.1.15,2013-07-09 08:35:00,
2013-07-09 03:45:00,75.1,71.0,29.82,ESE,113,2.0,2.0,87,0.00,,,0.00,Wunderground v.1.15,2013-07-09 08:45:00,
2013-07-09 03:55:00,75.3,71.2,29.81,NNE,30,3.0,5.0,87,0.00,,,0.00,Wunderground v.1.15,2013-07-09 08:55:00,
2013-07-09 04:00:00,75.4,71.3,29.81,NE,41,5.0,6.0,87,0.00,,,0.00,Wunderground v.1.15,2013-07-09 09:00:00,
2013-07-09 04:10:00,75.5,71.4,29.80,ESE,104,2.0,2.0,87,0.00,,,0.00,Wunderground v.1.15,2013-07-09 09:10:00,
2013-07-09 04:20:00,75.4,71.3,29.78,SE,132,2.0,3.0,87,0.00,,,0.00,Wunderground v.1.15,2013-07-09 09:20:00,
2013-07-09 04:30:00,75.8,71.0,29.78,SSE,153,3.0,3.0,85,0.00,,,0.00,Wunderground v.1.15,2013-07-09 09:30:00,
2013-07-09 04:40:00,75.7,70.9,29.79,SE,136,2.0,3.0,85,0.00,,,0.00,Wunderground v.1.15,2013-07-09 09:40:00,
2013-07-09 04:50:00,75.7,70.5,29.79,ESE,103,1.0,1.0,84,0.00,,,0.00,Wunderground v.1.15,2013-07-09 09:50:00,
2013-07-09 05:00:00,75.6,70.8,29.78,NNE,30,3.0,4.0,85,0.00,,,0.00,Wunderground v.1.15,2013-07-09 10:00:00,
2013-07-09 05:10:00,74.9,70.8,29.77,ENE,60,4.0,4.0,87,0.00,,,0.00,Wunderground v.1.15,2013-07-09 10:10:00,
2013-07-09 05:15:00,74.7,70.6,29.76,ENE,77,3.0,4.0,87,0.00,,,0.00,Wunderground v.1.15,2013-07-09 10:15:00,
2013-07-09 05:25:00,74.6,70.1,29.75,East,98,5.0,6.0,86,0.00,,,0.00,Wunderground v.1.15,2013-07-09 10:25:00,
2013-07-09 05:35:00,74.6,70.1,29.78,ESE,114,2.0,3.0,86,0.00,,,0.00,Wunderground v.1.15,2013-07-09 10:35:00,
2013-07-09 05:45:00,74.2,69.7,29.80,SSE,155,1.0,1.0,86,0.00,,,0.00,Wunderground v.1.15,2013-07-09 10:45:00,
2013-07-09 05:50:00,73.9,69.8,29.79,SE,141,1.0,1.0,87,0.00,,,0.00,Wunderground v.1.15,2013-07-09 10:50:00,
2013-07-09 06:00:00,72.7,68.9,29.80,SSW,208,1.0,1.0,88,0.00,,,0.00,Wunderground v.1.15,2013-07-09 11:00:00,
2013-07-09 06:10:00,72.1,69.3,29.80,SSE,150,2.0,2.0,91,0.00,,,0.00,Wunderground v.1.15,2013-07-09 11:10:00,
2013-07-09 06:15:00,72.1,69.3,29.80,SSE,148,2.0,2.0,91,0.00,,,0.00,Wunderground v.1.15,2013-07-09 11:15:00,
2013-07-09 06:25:00,72.1,69.3,29.81,ESE,121,1.0,2.0,91,0.00,,,0.00,Wunderground v.1.15,2013-07-09 11:25:00,
2013-07-09 06:30:00,72.2,69.1,29.81,SE,131,1.0,3.0,90,0.00,,,0.00,Wunderground v.1.15,2013-07-09 11:30:00,
2013-07-09 06:40:00,72.2,68.8,29.80,SE,141,2.0,2.0,89,0.00,,,0.00,Wunderground v.1.15,2013-07-09 11:40:00,
2013-07-09 06:45:00,72.3,68.9,29.81,SSE,148,2.0,2.0,89,0.00,,,0.00,Wunderground v.1.15,2013-07-09 11:45:00,
2013-07-09 06:55:00,72.8,69.0,29.81,SSE,148,1.0,2.0,88,0.00,,,0.00,Wunderground v.1.15,2013-07-09 11:55:00,
2013-07-09 07:00:00,73.0,69.2,29.81,SSE,148,0.0,1.0,88,0.00,,,0.00,Wunderground v.1.15,2013-07-09 12:00:00,
2013-07-09 07:05:00,73.4,69.6,29.81,South,173,1.0,1.0,88,0.00,,,0.00,Wunderground v.1.15,2013-07-09 12:05:00,
2013-07-09 07:15:00,74.6,70.1,29.81,SSE,160,2.0,2.0,86,0.00,,,0.00,Wunderground v.1.15,2013-07-09 12:15:00,
2013-07-09 07:25:00,75.9,70.4,29.82,South,172,3.0,3.0,83,0.00,,,0.00,Wunderground v.1.15,2013-07-09 12:25:00,
2013-07-09 07:35:00,76.9,71.0,29.82,SSE,159,3.0,3.0,82,0.00,,,0.00,Wunderground v.1.15,2013-07-09 12:35:00,
2013-07-09 07:45:00,77.8,71.5,29.82,SSE,155,2.0,4.0,81,0.00,,,0.00,Wunderground v.1.15,2013-07-09 12:45:00,
2013-07-09 07:55:00,78.3,72.0,29.83,SSE,150,4.0,5.0,81,0.00,,,0.00,Wunderground v.1.15,2013-07-09 12:55:00,
2013-07-09 08:00:00,78.9,72.2,29.83,SSE,164,3.0,3.0,80,0.00,,,0.00,Wunderground v.1.15,2013-07-09 13:00:00,
2013-07-09 08:05:00,79.6,72.5,29.83,SE,137,1.0,3.0,79,0.00,,,0.00,Wunderground v.1.15,2013-07-09 13:05:00,
2013-07-09 08:15:00,81.2,72.9,29.85,East,80,1.0,2.0,76,0.00,,,0.00,Wunderground v.1.15,2013-07-09 13:15:00,
2013-07-09 08:25:00,82.1,73.0,29.84,NNE,25,1.0,3.0,74,0.00,,,0.00,Wunderground v.1.15,2013-07-09 13:25:00,
2013-07-09 08:35:00,81.2,72.5,29.85,ENE,70,3.0,4.0,75,0.00,,,0.00,Wunderground v.1.15,2013-07-09 13:35:00,
2013-07-09 08:45:00,81.9,72.4,29.85,NE,51,2.0,4.0,73,0.00,,,0.00,Wunderground v.1.15,2013-07-09 13:45:00,
2013-07-09 08:55:00,82.3,73.2,29.85,North,8,3.0,4.0,74,0.00,,,0.00,Wunderground v.1.15,2013-07-09 13:55:00,
2013-07-09 09:00:00,82.6,73.9,29.85,NE,53,3.0,4.0,75,0.00,,,0.00,Wunderground v.1.15,2013-07-09 14:00:00,
2013-07-09 09:10:00,82.5,73.0,29.85,NE,46,4.0,4.0,73,0.00,,,0.00,Wunderground v.1.15,2013-07-09 14:10:00,
2013-07-09 09:20:00,82.7,73.6,29.85,ENE,68,3.0,4.0,74,0.00,,,0.00,Wunderground v.1.15,2013-07-09 14:20:00,
2013-07-09 09:30:00,83.0,73.0,29.84,SE,132,3.0,3.0,72,0.00,,,0.00,Wunderground v.1.15,2013-07-09 14:30:00,
2013-07-09 09:40:00,83.7,73.3,29.85,ESE,113,2.0,3.0,71,0.00,,,0.00,Wunderground v.1.15,2013-07-09 14:40:00,
2013-07-09 09:50:00,84.4,74.0,29.84,ESE,115,3.0,4.0,71,0.00,,,0.00,Wunderground v.1.15,2013-07-09 14:50:00,
2013-07-09 10:00:00,84.3,73.9,29.84,SSE,148,3.0,5.0,71,0.00,,,0.00,Wunderground v.1.15,2013-07-09 15:00:00,
2013-07-09 10:10:00,84.7,73.8,29.83,ENE,63,3.0,3.0,70,0.00,,,0.00,Wunderground v.1.15,2013-07-09 15:10:00,
2013-07-09 10:20:00,84.8,74.3,29.83,SE,139,4.0,4.0,71,0.00,,,0.00,Wunderground v.1.15,2013-07-09 15:20:00,
2013-07-09 10:30:00,85.2,73.9,29.83,SE,141,3.0,4.0,69,0.00,,,0.00,Wunderground v.1.15,2013-07-09 15:30:00,
2013-07-09 10:40:00,85.6,73.4,29.83,SSE,147,4.0,4.0,67,0.00,,,0.00,Wunderground v.1.15,2013-07-09 15:40:00,
2013-07-09 10:50:00,86.4,73.7,29.83,SSW,212,3.0,3.0,66,0.00,,,0.00,Wunderground v.1.15,2013-07-09 15:50:00,
2013-07-09 11:00:00,87.2,74.0,29.83,SSW,198,4.0,6.0,65,0.00,,,0.00,Wunderground v.1.15,2013-07-09 16:00:00,
2013-07-09 11:10:00,87.3,75.0,29.83,South,169,5.0,6.0,67,0.00,,,0.00,Wunderground v.1.15,2013-07-09 16:10:00,
2013-07-09 11:20:00,87.5,74.3,29.83,SW,226,5.0,5.0,65,0.00,,,0.00,Wunderground v.1.15,2013-07-09 16:20:00,
2013-07-09 11:25:00,87.4,73.7,29.83,WNW,284,5.0,5.0,64,0.00,,,0.00,Wunderground v.1.15,2013-07-09 16:25:00,
2013-07-09 11:35:00,87.6,73.9,29.83,SSE,153,4.0,7.0,64,0.00,,,0.00,Wunderground v.1.15,2013-07-09 16:35:00,
2013-07-09 11:40:00,87.8,73.6,29.83,West,262,4.0,4.0,63,0.00,,,0.00,Wunderground v.1.15,2013-07-09 16:40:00,
2013-07-09 11:50:00,88.3,74.6,29.83,SW,232,4.0,5.0,64,0.00,,,0.00,Wunderground v.1.15,2013-07-09 16:50:00,
2013-07-09 12:00:00,88.6,74.9,29.83,SW,227,4.0,5.0,64,0.00,,,0.00,Wunderground v.1.15,2013-07-09 17:00:00,
2013-07-09 12:10:00,88.6,74.9,29.83,SW,224,4.0,4.0,64,0.00,,,0.00,Wunderground v.1.15,2013-07-09 17:10:00,
2013-07-09 12:15:00,88.9,74.2,29.82,West,277,4.0,4.0,62,0.00,,,0.00,Wunderground v.1.15,2013-07-09 17:15:00,
2013-07-09 12:25:00,89.5,74.8,29.82,WSW,239,3.0,4.0,62,0.00,,,0.00,Wunderground v.1.15,2013-07-09 17:25:00,
2013-07-09 12:35:00,89.4,74.7,29.82,SSE,162,5.0,7.0,62,0.00,,,0.00,Wunderground v.1.15,2013-07-09 17:35:00,
2013-07-09 12:45:00,89.6,75.3,29.81,West,259,4.0,5.0,63,0.00,,,0.00,Wunderground v.1.15,2013-07-09 17:45:00,
2013-07-09 12:55:00,90.6,74.8,29.82,SSW,197,4.0,4.0,60,0.00,,,0.00,Wunderground v.1.15,2013-07-09 17:55:00,
2013-07-09 13:00:00,90.8,75.5,29.82,WSW,255,4.0,4.0,61,0.00,,,0.00,Wunderground v.1.15,2013-07-09 18:00:00,
2013-07-09 13:10:00,90.6,75.3,29.81,SW,231,5.0,5.0,61,0.00,,,0.00,Wunderground v.1.15,2013-07-09 18:10:00,
2013-07-09 13:20:00,90.5,75.7,29.81,SW,235,4.0,5.0,62,0.00,,,0.00,Wunderground v.1.15,2013-07-09 18:20:00,
2013-07-09 13:30:00,90.7,75.4,29.81,West,273,5.0,5.0,61,0.00,,,0.00,Wunderground v.1.15,2013-07-09 18:30:00,
2013-07-09 13:40:00,90.9,76.1,29.81,SW,219,2.0,2.0,62,0.00,,,0.00,Wunderground v.1.15,2013-07-09 18:40:00,
2013-07-09 13:45:00,91.5,75.1,29.81,WNW,284,2.0,3.0,59,0.00,,,0.00,Wunderground v.1.15,2013-07-09 18:45:00,
2013-07-09 13:55:00,91.9,76.0,29.81,WSW,253,4.0,4.0,60,0.00,,,0.00,Wunderground v.1.15,2013-07-09 18:55:00,
2013-07-09 14:00:00,92.1,76.2,29.80,WNW,294,3.0,3.0,60,0.00,,,0.00,Wunderground v.1.15,2013-07-09 19:00:00,
2013-07-09 14:10:00,92.5,76.6,29.80,WNW,283,3.0,3.0,60,0.00,,,0.00,Wunderground v.1.15,2013-07-09 19:10:00,
2013-07-09 14:20:00,93.1,76.6,29.81,South,181,4.0,4.0,59,0.00,,,0.00,Wunderground v.1.15,2013-07-09 19:20:00,
2013-07-09 14:30:00,93.2,76.2,29.81,West,280,3.0,4.0,58,0.00,,,0.00,Wunderground v.1.15,2013-07-09 19:30:00,
2013-07-09 14:35:00,93.1,76.1,29.80,WSW,252,3.0,4.0,58,0.00,,,0.00,Wunderground v.1.15,2013-07-09 19:35:00,
2013-07-09 14:45:00,93.6,75.5,29.80,SSW,200,2.0,4.0,56,0.00,,,0.00,Wunderground v.1.15,2013-07-09 19:45:00,
2013-07-09 14:55:00,93.9,75.8,29.80,West,270,4.0,5.0,56,0.00,,,0.00,Wunderground v.1.15,2013-07-09 19:55:00,
2013-07-09 15:00:00,93.7,75.6,29.80,WSW,253,4.0,4.0,56,0.00,,,0.00,Wunderground v.1.15,2013-07-09 20:00:00,
2013-07-09 15:10:00,93.9,73.6,29.81,East,79,3.0,3.0,52,0.00,,,0.00,Wunderground v.1.15,2013-07-09 20:10:00,
2013-07-09 15:15:00,94.1,74.9,29.81,NNW,338,3.0,3.0,54,0.00,,,0.00,Wunderground v.1.15,2013-07-09 20:15:00,
2013-07-09 15:25:00,94.4,74.6,29.81,WNW,301,3.0,5.0,53,0.00,,,0.00,Wunderground v.1.15,2013-07-09 20:25:00,
2013-07-09 15:35:00,93.9,73.6,29.81,NNE,18,4.0,4.0,52,0.00,,,0.00,Wunderground v.1.15,2013-07-09 20:35:00,
2013-07-09 15:45:00,94.1,74.9,29.81,NNW,336,3.0,3.0,54,0.00,,,0.00,Wunderground v.1.15,2013-07-09 20:45:00,
2013-07-09 15:55:00,94.1,73.8,29.81,NNW,328,2.0,3.0,52,0.00,,,0.00,Wunderground v.1.15,2013-07-09 20:55:00,
2013-07-09 16:00:00,94.5,74.2,29.81,West,281,2.0,2.0,52,0.00,,,0.00,Wunderground v.1.15,2013-07-09 21:00:00,
2013-07-09 16:05:00,94.8,73.8,29.80,SW,236,2.0,3.0,51,0.00,,,0.00,Wunderground v.1.15,2013-07-09 21:05:00,
2013-07-09 16:15:00,94.9,75.1,29.80,NNW,340,3.0,3.0,53,0.00,,,0.00,Wunderground v.1.15,2013-07-09 21:15:00,
2013-07-09 16:25:00,94.8,74.4,29.80,NNE,18,3.0,3.0,52,0.00,,,0.00,Wunderground v.1.15,2013-07-09 21:25:00,
2013-07-09 16:35:00,95.5,77.3,29.80,NW,316,2.0,2.0,56,0.00,,,0.00,Wunderground v.1.15,2013-07-09 21:35:00,
2013-07-09 16:45:00,95.4,75.0,29.80,NNE,14,2.0,2.0,52,0.00,,,0.00,Wunderground v.1.15,2013-07-09 21:45:00,
2013-07-09 16:50:00,95.3,75.5,29.80,NNW,333,2.0,2.0,53,0.00,,,0.00,Wunderground v.1.15,2013-07-09 21:50:00,
2013-07-09 17:00:00,94.8,75.0,29.80,NNE,15,3.0,3.0,53,0.00,,,0.00,Wunderground v.1.15,2013-07-09 22:00:00,
2013-07-09 17:10:00,95.4,75.6,29.80,West,279,2.0,2.0,53,0.00,,,0.00,Wunderground v.1.15,2013-07-09 22:10:00,
2013-07-09 17:20:00,96.4,74.1,29.80,NNW,347,2.0,2.0,49,0.00,,,0.00,Wunderground v.1.15,2013-07-09 22:20:00,
2013-07-09 17:30:00,95.0,73.4,29.80,NE,49,5.0,5.0,50,0.00,,,0.00,Wunderground v.1.15,2013-07-09 22:30:00,
2013-07-09 17:40:00,94.7,74.3,29.80,NNE,16,5.0,6.0,52,0.00,,,0.00,Wunderground v.1.15,2013-07-09 22:40:00,
2013-07-09 17:50:00,94.3,74.0,29.80,NNE,32,6.0,6.0,52,0.00,,,0.00,Wunderground v.1.15,2013-07-09 22:50:00,
2013-07-09 18:00:00,93.9,74.7,29.80,NNE,30,6.0,8.0,54,0.00,,,0.00,Wunderground v.1.15,2013-07-09 23:00:00,
2013-07-09 18:10:00,93.5,74.9,29.80,NNE,13,7.0,7.0,55,0.00,,,0.00,Wunderground v.1.15,2013-07-09 23:10:00,
2013-07-09 18:20:00,93.5,74.9,29.80,NNE,31,7.0,8.0,55,0.00,,,0.00,Wunderground v.1.15,2013-07-09 23:20:00,
2013-07-09 18:30:00,93.2,74.6,29.80,North,352,7.0,7.0,55,0.00,,,0.00,Wunderground v.1.15,2013-07-09 23:30:00,
2013-07-09 18:40:00,93.1,75.1,29.79,NNE,26,6.0,10.0,56,0.00,,,0.00,Wunderground v.1.15,2013-07-09 23:40:00,
2013-07-09 18:50:00,93.2,74.6,29.79,North,9,7.0,7.0,55,0.00,,,0.00,Wunderground v.1.15,2013-07-09 23:50:00,
2013-07-09 19:00:00,92.8,76.4,29.80,NE,37,7.0,7.0,59,0.00,,,0.00,Wunderground v.1.15,2013-07-10 00:00:00,
2013-07-09 19:10:00,92.1,76.2,29.80,NE,52,6.0,6.0,60,0.00,,,0.00,Wunderground v.1.15,2013-07-10 00:10:00,
2013-07-09 19:15:00,91.8,76.4,29.80,NNE,20,6.0,6.0,61,0.00,,,0.00,Wunderground v.1.15,2013-07-10 00:15:00,
2013-07-09 19:25:00,91.3,76.0,29.80,NE,45,6.0,8.0,61,0.00,,,0.00,Wunderground v.1.15,2013-07-10 00:25:00,
2013-07-09 19:30:00,90.9,76.1,29.80,NNE,27,6.0,7.0,62,0.00,,,0.00,Wunderground v.1.15,2013-07-10 00:30:00,
2013-07-09 19:40:00,89.8,76.5,29.80,NE,39,6.0,6.0,65,0.00,,,0.00,Wunderground v.1.15,2013-07-10 00:40:00,
2013-07-09 19:50:00,88.8,76.9,29.80,NE,34,5.0,6.0,68,0.00,,,0.00,Wunderground v.1.15,2013-07-10 00:50:00,
2013-07-09 20:00:00,88.1,76.6,29.80,NE,34,6.0,6.0,69,0.00,,,0.00,Wunderground v.1.15,2013-07-10 01:00:00,
2013-07-09 20:10:00,87.4,76.4,29.80,NE,46,6.0,6.0,70,0.00,,,0.00,Wunderground v.1.15,2013-07-10 01:10:00,
2013-07-09 20:15:00,87.2,76.2,29.80,NNE,25,5.0,6.0,70,0.00,,,0.00,Wunderground v.1.15,2013-07-10 01:15:00,
2013-07-09 20:25:00,86.7,76.2,29.81,NNE,18,5.0,10.0,71,0.00,,,0.00,Wunderground v.1.15,2013-07-10 01:25:00,
2013-07-09 20:35:00,86.3,76.2,29.82,NNE,30,9.0,9.0,72,0.00,,,0.00,Wunderground v.1.15,2013-07-10 01:35:00,
2013-07-09 20:45:00,85.6,75.9,29.82,NNE,25,7.0,8.0,73,0.00,,,0.00,Wunderground v.1.15,2013-07-10 01:45:00,
2013-07-09 20:55:00,85.0,75.8,29.83,NNE,27,6.0,7.0,74,0.00,,,0.00,Wunderground v.1.15,2013-07-10 01:55:00,
2013-07-09 21:00:00,84.9,75.7,29.83,NE,44,7.0,9.0,74,0.00,,,0.00,Wunderground v.1.15,2013-07-10 02:00:00,
2013-07-09 21:10:00,84.6,75.4,29.83,NNE,25,9.0,9.0,74,0.00,,,0.00,Wunderground v.1.15,2013-07-10 02:10:00,
2013-07-09 21:15:00,84.4,75.2,29.83,NE,37,8.0,12.0,74,0.00,,,0.00,Wunderground v.1.15,2013-07-10 02:15:00,
2013-07-09 21:25:00,84.1,75.3,29.83,NNE,30,9.0,9.0,75,0.00,,,0.00,Wunderground v.1.15,2013-07-10 02:25:00,
2013-07-09 21:35:00,83.6,75.6,29.83,NE,37,7.0,11.0,77,0.00,,,0.00,Wunderground v.1.15,2013-07-10 02:35:00,
2013-07-09 21:45:00,83.1,75.5,29.83,North,356,8.0,10.0,78,0.00,,,0.00,Wunderground v.1.15,2013-07-10 02:45:00,
2013-07-09 21:55:00,82.7,75.1,29.83,North,11,8.0,8.0,78,0.00,,,0.00,Wunderground v.1.15,2013-07-10 02:55:00,
2013-07-09 22:00:00,82.6,75.0,29.83,NNE,20,8.0,11.0,78,0.00,,,0.00,Wunderground v.1.15,2013-07-10 03:00:00,
2013-07-09 22:10:00,82.5,74.6,29.84,NNE,22,9.0,13.0,77,0.00,,,0.00,Wunderground v.1.15,2013-07-10 03:10:00,
2013-07-09 22:20:00,82.3,74.0,29.84,NNE,26,11.0,11.0,76,0.00,,,0.00,Wunderground v.1.15,2013-07-10 03:20:00,
2013-07-09 22:30:00,82.0,73.3,29.84,NNW,345,11.0,11.0,75,0.00,,,0.00,Wunderground v.1.15,2013-07-10 03:30:00,
2013-07-09 22:35:00,81.9,73.2,29.85,NNE,23,10.0,11.0,75,0.00,,,0.00,Wunderground v.1.15,2013-07-10 03:35:00,
2013-07-09 22:45:00,81.5,72.8,29.86,NE,47,8.0,9.0,75,0.00,,,0.00,Wunderground v.1.15,2013-07-10 03:45:00,
2013-07-09 22:55:00,81.1,72.8,29.86,North,352,8.0,9.0,76,0.00,,,0.00,Wunderground v.1.15,2013-07-10 03:55:00,
2013-07-09 23:00:00,80.9,72.6,29.86,NNE,31,7.0,7.0,76,0.00,,,0.00,Wunderground v.1.15,2013-07-10 04:00:00,
2013-07-09 23:05:00,80.7,72.8,29.86,NE,35,7.0,7.0,77,0.00,,,0.00,Wunderground v.1.15,2013-07-10 04:05:00,
2013-07-09 23:10:00,80.4,72.9,29.86,NNE,14,7.0,7.0,78,0.00,,,0.00,Wunderground v.1.15,2013-07-10 04:10:00,
2013-07-09 23:15:00,80.2,72.7,29.86,NNE,32,7.0,8.0,78,0.00,,,0.00,Wunderground v.1.15,2013-07-10 04:15:00,
2013-07-09 23:20:00,80.0,72.5,29.86,North,356,7.0,11.0,78,0.00,,,0.00,Wunderground v.1.15,2013-07-10 04:20:00,
2013-07-09 23:30:00,79.6,72.1,29.87,NNW,348,7.0,7.0,78,0.00,,,0.00,Wunderground v.1.15,2013-07-10 04:30:00,
2013-07-09 23:40:00,79.4,71.9,29.87,North,5,7.0,7.0,78,0.00,,,0.00,Wunderground v.1.15,2013-07-10 04:40:00,
2013-07-09 23:50:00,79.1,72.0,29.87,North,4,7.0,9.0,79,0.00,,,0.00,Wunderground v.1.15,2013-07-10 04:50:00,
2013-07-09 23:55:00,79.0,71.9,29.87,North,9,8.0,9.0,79,0.00,,,0.00,Wunderground v.1.15,2013-07-10 04:55:00,